Time;durP1;ratioP1;P1;durP2;ratioP2;P2;SDS_P1;SDS_P2;PMS_P1;PMS_P2;Temp;Humidity;BMP_temperature;BMP_pressure;BME280_temperature;BME280_humidity;BME280_pressure;Samples;Min_cycle;Max_cycle;Signal;HPM_P1;HPM_P2
2021/09/07 00:00:10;;;;;;;18.47;16.67;;;16.20;99.90;;;;;;5051898;28;20993;-64
2021/09/07 00:02:38;;;;;;;17.40;15.80;;;16.30;99.90;;;;;;5057385;28;20447;-64
2021/09/07 00:05:06;;;;;;;16.47;15.07;;;16.30;99.90;;;;;;5074269;28;20447;-65
2021/09/07 00:07:32;;;;;;;15.23;14.07;;;16.30;99.90;;;;;;5074318;28;20447;-65
2021/09/07 00:09:59;;;;;;;16.20;14.53;;;16.30;99.90;;;;;;5074132;28;20475;-65
2021/09/07 00:12:26;;;;;;;17.80;16.00;;;16.30;99.90;;;;;;5072429;28;20884;-66
2021/09/07 00:14:53;;;;;;;15.20;13.90;;;16.20;99.90;;;;;;5054083;28;20448;-64
2021/09/07 00:17:19;;;;;;;17.47;15.97;;;16.30;99.90;;;;;;5054184;28;20812;-64
2021/09/07 00:19:47;;;;;;;18.80;13.67;;;16.30;99.90;;;;;;5054133;28;20471;-65
2021/09/07 00:22:14;;;;;;;16.37;14.97;;;16.30;99.90;;;;;;5053654;28;20816;-64
2021/09/07 00:24:41;;;;;;;16.40;14.90;;;16.30;99.90;;;;;;5073486;28;20447;-65
2021/09/07 00:27:07;;;;;;;16.90;14.90;;;16.30;99.90;;;;;;5073929;28;20475;-65
2021/09/07 00:29:34;;;;;;;14.93;13.30;;;16.30;99.90;;;;;;5073773;28;20460;-63
2021/09/07 00:32:01;;;;;;;15.73;14.23;;;16.30;99.90;;;;;;5073719;28;20811;-65
2021/09/07 00:34:27;;;;;;;15.47;13.83;;;16.20;99.90;;;;;;5055853;28;20448;-65
2021/09/07 00:36:55;;;;;;;14.37;13.03;;;16.20;99.90;;;;;;5065064;28;20444;-64
2021/09/07 00:39:22;;;;;;;15.43;13.93;;;16.10;99.90;;;;;;5073714;28;20977;-65
2021/09/07 00:41:49;;;;;;;16.93;15.23;;;16.10;99.90;;;;;;5073496;28;21173;-64
2021/09/07 00:44:17;;;;;;;16.77;14.53;;;16.10;99.90;;;;;;5057475;28;20445;-66
2021/09/07 00:46:48;;;;;;;17.70;15.33;;;16.10;99.90;;;;;;5053549;28;20476;-64
2021/09/07 00:49:15;;;;;;;15.03;13.70;;;16.00;99.90;;;;;;5053615;28;20518;-64
2021/09/07 00:51:43;;;;;;;17.13;15.67;;;16.00;99.90;;;;;;5053355;28;20455;-65
2021/09/07 00:54:11;;;;;;;19.00;15.60;;;16.00;99.90;;;;;;5068286;28;20444;-65
2021/09/07 00:56:40;;;;;;;16.37;14.70;;;15.90;99.90;;;;;;5073118;28;20451;-64
2021/09/07 00:59:08;;;;;;;17.57;15.77;;;15.90;99.90;;;;;;5073342;28;20470;-63
2021/09/07 01:01:35;;;;;;;16.57;14.53;;;15.90;99.90;;;;;;5073096;28;20443;-64
2021/09/07 01:04:02;;;;;;;15.67;14.07;;;15.80;99.90;;;;;;5059614;28;20448;-65
2021/09/07 01:06:29;;;;;;;15.50;14.00;;;15.80;99.90;;;;;;5053274;28;20549;-64
2021/09/07 01:08:57;;;;;;;14.93;13.43;;;15.80;99.90;;;;;;5053002;28;20864;-65
2021/09/07 01:11:25;;;;;;;17.17;15.60;;;15.80;99.90;;;;;;5052844;28;20968;-65
2021/09/07 01:13:52;;;;;;;14.80;13.43;;;15.80;99.90;;;;;;5064411;28;20444;-64
2021/09/07 01:16:19;;;;;;;15.87;14.43;;;15.80;99.90;;;;;;5073139;28;20793;-65
2021/09/07 01:18:46;;;;;;;17.47;15.30;;;15.80;99.90;;;;;;5072927;28;20466;-63
2021/09/07 01:21:14;;;;;;;16.03;14.53;;;15.80;99.90;;;;;;5054249;28;20784;-64
2021/09/07 01:23:45;;;;;;;17.00;14.10;;;15.80;99.90;;;;;;5052943;28;20810;-65
2021/09/07 01:26:15;;;;;;;16.77;14.97;;;15.80;99.90;;;;;;5052859;28;20484;-64
2021/09/07 01:28:42;;;;;;;16.07;14.47;;;15.70;99.90;;;;;;5052757;28;20474;-64
2021/09/07 01:31:10;;;;;;;16.37;14.27;;;15.70;99.90;;;;;;5070002;28;20838;-65
2021/09/07 01:33:37;;;;;;;16.20;14.50;;;15.70;99.90;;;;;;5072602;28;20443;-64
2021/09/07 01:36:05;;;;;;;16.50;13.87;;;15.70;99.90;;;;;;5072736;28;20431;-65
2021/09/07 01:38:33;;;;;;;16.23;13.13;;;15.70;99.90;;;;;;5071407;28;20972;-65
2021/09/07 01:41:01;;;;;;;17.70;12.47;;;15.60;99.90;;;;;;5072446;28;20440;-64
2021/09/07 01:43:29;;;;;;;15.80;14.30;;;15.60;99.90;;;;;;5072356;28;20451;-63
2021/09/07 01:45:56;;;;;;;16.10;14.47;;;15.60;99.90;;;;;;5072539;28;20471;-65
2021/09/07 01:48:25;;;;;;;17.20;15.20;;;15.50;99.90;;;;;;5064187;28;20461;-64
2021/09/07 01:50:52;;;;;;;14.53;13.03;;;15.50;99.90;;;;;;5052404;28;20451;-66
2021/09/07 01:53:19;;;;;;;15.80;13.37;;;15.50;99.90;;;;;;5053321;28;20448;-65
2021/09/07 01:55:46;;;;;;;18.77;16.87;;;15.50;99.90;;;;;;5052335;28;20444;-66
2021/09/07 01:58:13;;;;;;;15.53;14.03;;;15.40;99.90;;;;;;5058370;28;20992;-64
2021/09/07 02:00:41;;;;;;;17.90;14.40;;;15.40;99.90;;;;;;5072207;28;20447;-65
2021/09/07 02:03:08;;;;;;;17.80;15.10;;;15.40;99.90;;;;;;5071954;28;20448;-65
2021/09/07 02:05:34;;;;;;;20.70;16.20;;;15.40;99.90;;;;;;5072054;28;20933;-65
2021/09/07 02:08:01;;;;;;;17.87;14.00;;;15.40;99.90;;;;;;5067100;28;20448;-65
2021/09/07 02:10:28;;;;;;;17.33;15.60;;;15.30;99.90;;;;;;5052178;28;20440;-66
2021/09/07 02:12:55;;;;;;;19.77;16.07;;;15.30;99.90;;;;;;5051793;28;20447;-64
2021/09/07 02:15:22;;;;;;;19.83;15.37;;;15.30;99.90;;;;;;5051723;28;20467;-66
2021/09/07 02:17:49;;;;;;;15.97;13.30;;;15.30;99.90;;;;;;5053990;28;20447;-64
2021/09/07 02:20:16;;;;;;;20.10;16.20;;;15.30;99.90;;;;;;5071392;28;20467;-64
2021/09/07 02:22:43;;;;;;;16.27;14.63;;;15.30;99.90;;;;;;5071147;28;20474;-67
2021/09/07 02:25:11;;;;;;;20.53;14.30;;;15.20;99.90;;;;;;5071974;28;20443;-66
2021/09/07 02:27:37;;;;;;;16.90;13.87;;;15.20;99.90;;;;;;5070582;28;20546;-66
2021/09/07 02:30:05;;;;;;;15.50;13.67;;;15.20;99.90;;;;;;5051759;28;20475;-66
2021/09/07 02:32:32;;;;;;;18.53;14.07;;;15.10;99.90;;;;;;5051474;28;20444;-66
2021/09/07 02:35:00;;;;;;;14.60;12.40;;;15.10;99.90;;;;;;5051234;28;20451;-65
2021/09/07 02:37:26;;;;;;;16.60;14.80;;;15.10;99.90;;;;;;5051529;28;20440;-66
2021/09/07 02:39:53;;;;;;;18.13;16.33;;;15.10;99.90;;;;;;5070355;28;20466;-65
2021/09/07 02:42:20;;;;;;;19.20;17.23;;;15.10;99.90;;;;;;5071353;28;20465;-65
2021/09/07 02:44:46;;;;;;;17.00;15.30;;;15.00;99.90;;;;;;5071718;28;20469;-66
2021/09/07 02:47:13;;;;;;;22.27;16.20;;;15.00;99.90;;;;;;5060567;28;20480;-65
2021/09/07 02:49:40;;;;;;;18.83;14.80;;;15.00;99.90;;;;;;5051602;28;20472;-64
2021/09/07 02:52:08;;;;;;;25.07;18.27;;;15.00;99.90;;;;;;5051578;28;20440;-67
2021/09/07 02:54:35;;;;;;;17.03;14.50;;;15.00;99.90;;;;;;5051302;28;20447;-66
2021/09/07 02:57:01;;;;;;;17.90;13.83;;;15.00;99.90;;;;;;5060408;28;20443;-67
2021/09/07 02:59:28;;;;;;;16.23;14.53;;;15.00;99.90;;;;;;5071438;28;20463;-66
2021/09/07 03:01:55;;;;;;;15.10;13.50;;;15.00;99.90;;;;;;5071244;28;20963;-66
2021/09/07 03:04:21;;;;;;;21.07;16.50;;;15.00;99.90;;;;;;5071518;28;20466;-66
2021/09/07 03:06:49;;;;;;;17.80;15.90;;;14.90;99.90;;;;;;5064443;28;20487;-66
2021/09/07 03:09:17;;;;;;;18.50;15.50;;;14.90;99.90;;;;;;5051083;28;20908;-66
2021/09/07 03:11:43;;;;;;;22.17;17.03;;;14.90;99.90;;;;;;5059238;28;20444;-67
2021/09/07 03:14:10;;;;;;;23.00;16.63;;;14.90;99.90;;;;;;5051250;28;20444;-65
2021/09/07 03:16:37;;;;;;;18.37;16.10;;;14.90;99.90;;;;;;5062762;28;20450;-66
2021/09/07 03:19:04;;;;;;;19.00;15.20;;;14.90;99.90;;;;;;5071202;28;20987;-66
2021/09/07 03:21:31;;;;;;;19.07;15.93;;;14.80;99.90;;;;;;5071035;28;20442;-65
2021/09/07 03:23:58;;;;;;;20.80;15.60;;;14.80;99.90;;;;;;5071174;28;20449;-64
2021/09/07 03:26:26;;;;;;;20.50;15.63;;;14.80;99.90;;;;;;5070279;28;20475;-65
2021/09/07 03:28:53;;;;;;;17.27;15.60;;;14.80;99.90;;;;;;5071261;28;20490;-65
2021/09/07 03:31:20;;;;;;;20.10;15.17;;;14.80;99.90;;;;;;5070979;28;20454;-64
2021/09/07 03:33:46;;;;;;;17.80;15.83;;;14.80;99.90;;;;;;5071229;28;20443;-65
2021/09/07 03:36:13;;;;;;;19.97;15.03;;;14.80;99.90;;;;;;5063129;28;20939;-65
2021/09/07 03:38:40;;;;;;;20.37;15.53;;;14.80;99.90;;;;;;5052988;28;20463;-64
2021/09/07 03:41:06;;;;;;;22.40;17.33;;;14.80;99.90;;;;;;5043111;28;20451;-66
2021/09/07 03:43:35;;;;;;;19.10;15.10;;;14.90;99.90;;;;;;5042994;28;20444;-66
2021/09/07 03:46:01;;;;;;;19.33;16.00;;;14.90;99.90;;;;;;5051733;28;20447;-66
2021/09/07 03:48:28;;;;;;;21.00;17.20;;;15.00;99.90;;;;;;5063214;28;20530;-66
2021/09/07 03:50:55;;;;;;;23.07;14.73;;;15.00;99.90;;;;;;5062939;28;20447;-66
2021/09/07 03:53:22;;;;;;;16.27;14.40;;;15.10;99.90;;;;;;5062145;28;20493;-66
2021/09/07 03:55:48;;;;;;;20.70;14.57;;;15.20;99.90;;;;;;5042976;28;20451;-68
2021/09/07 03:58:15;;;;;;;22.13;16.30;;;15.20;99.90;;;;;;5042826;28;20475;-66
2021/09/07 04:00:43;;;;;;;22.63;14.70;;;15.30;99.90;;;;;;5042853;28;20452;-66
2021/09/07 04:03:13;;;;;;;19.37;13.27;;;15.40;99.90;;;;;;5042722;28;21039;-67
2021/09/07 04:05:40;;;;;;;20.17;14.90;;;15.40;99.90;;;;;;5062151;28;20533;-65
2021/09/07 04:08:06;;;;;;;17.17;13.90;;;15.50;99.90;;;;;;5062659;28;20490;-67
2021/09/07 04:10:33;;;;;;;18.47;14.53;;;15.60;99.90;;;;;;5103613;22;20492;-57
2021/09/07 04:13:00;;;;;;;16.50;14.53;;;15.60;99.90;;;;;;5073745;28;20810;-61
2021/09/07 04:15:27;;;;;;;21.17;13.70;;;15.70;99.90;;;;;;5081872;28;20442;-57
2021/09/07 04:17:55;;;;;;;18.03;13.70;;;15.70;99.90;;;;;;5082465;28;20442;-57
2021/09/07 04:20:21;;;;;;;18.07;13.03;;;15.80;99.90;;;;;;5082292;28;20467;-61
2021/09/07 04:22:48;;;;;;;17.73;14.53;;;15.80;99.90;;;;;;5082209;28;20445;-60
2021/09/07 04:25:15;;;;;;;17.10;15.33;;;15.80;99.90;;;;;;5082281;28;20796;-59
2021/09/07 04:27:42;;;;;;;15.50;13.93;;;15.90;99.90;;;;;;5082449;28;20492;-56
2021/09/07 04:30:10;;;;;;;15.33;13.83;;;15.80;99.90;;;;;;5082299;28;20470;-59
2021/09/07 04:32:37;;;;;;;16.60;15.00;;;15.90;99.90;;;;;;5081996;28;20810;-58
2021/09/07 04:35:06;;;;;;;20.10;16.43;;;16.00;99.90;;;;;;5081806;28;20449;-56
2021/09/07 04:37:33;;;;;;;17.17;15.40;;;16.00;99.90;;;;;;5082001;28;20443;-59
2021/09/07 04:40:00;;;;;;;19.10;16.47;;;16.00;99.90;;;;;;5082073;28;20462;-59
2021/09/07 04:42:27;;;;;;;18.07;16.17;;;16.10;99.90;;;;;;5092915;28;20927;-63
2021/09/07 04:44:54;;;;;;;17.23;14.37;;;16.10;99.90;;;;;;5094097;28;20442;-53
2021/09/07 04:47:20;;;;;;;16.07;14.40;;;16.20;99.90;;;;;;5093287;28;20509;-53
2021/09/07 04:49:47;;;;;;;17.27;15.53;;;16.20;99.90;;;;;;5094203;28;20458;-52
2021/09/07 04:52:15;;;;;;;16.23;14.53;;;16.20;99.90;;;;;;5094104;28;20438;-59
2021/09/07 04:54:42;;;;;;;17.03;15.33;;;16.30;99.90;;;;;;5093863;28;20453;-57
2021/09/07 04:57:08;;;;;;;17.00;15.20;;;16.20;99.90;;;;;;5094166;28;20438;-54
2021/09/07 04:59:35;;;;;;;18.00;16.30;;;16.30;99.90;;;;;;5093753;28;20467;-53
2021/09/07 05:02:02;;;;;;;16.73;15.03;;;16.30;99.90;;;;;;5093425;28;20438;-58
2021/09/07 05:04:28;;;;;;;18.53;15.83;;;16.30;99.90;;;;;;5093742;28;20524;-53
2021/09/07 05:06:55;;;;;;;18.53;16.47;;;16.30;99.90;;;;;;5093537;28;20470;-53
2021/09/07 05:09:23;;;;;;;17.63;15.90;;;16.40;99.90;;;;;;5093371;28;20477;-53
2021/09/07 05:11:50;;;;;;;17.50;15.77;;;16.50;99.90;;;;;;5093523;28;20445;-53
2021/09/07 05:14:16;;;;;;;17.77;15.97;;;16.50;99.90;;;;;;5093640;28;20438;-57
2021/09/07 05:16:43;;;;;;;18.17;16.27;;;16.50;99.90;;;;;;5093336;28;20935;-54
2021/09/07 05:19:10;;;;;;;20.43;17.67;;;16.60;99.90;;;;;;5093432;28;20827;-53
2021/09/07 05:21:36;;;;;;;18.93;16.30;;;16.60;99.90;;;;;;5093200;28;20445;-57
2021/09/07 05:24:03;;;;;;;19.03;17.03;;;16.70;99.90;;;;;;5093103;28;20443;-54
2021/09/07 05:26:32;;;;;;;22.07;19.33;;;16.70;99.90;;;;;;5093207;28;20446;-53
2021/09/07 05:28:58;;;;;;;19.50;17.03;;;16.70;99.90;;;;;;5093243;28;20486;-53
2021/09/07 05:31:25;;;;;;;21.63;18.37;;;16.80;99.90;;;;;;5092801;28;20757;-59
2021/09/07 05:33:52;;;;;;;23.73;19.97;;;16.80;99.90;;;;;;5093432;28;20443;-55
2021/09/07 05:36:18;;;;;;;22.13;18.87;;;16.80;99.90;;;;;;5093025;28;20524;-53
2021/09/07 05:38:45;;;;;;;21.27;18.40;;;16.90;99.90;;;;;;5092895;28;21120;-53
2021/09/07 05:41:12;;;;;;;21.93;19.63;;;17.00;99.90;;;;;;5093208;28;20542;-55
2021/09/07 05:43:40;;;;;;;21.37;19.50;;;17.00;99.90;;;;;;5092971;28;20438;-54
2021/09/07 05:46:07;;;;;;;20.33;18.27;;;17.10;99.90;;;;;;5093142;28;20450;-54
2021/09/07 05:48:33;;;;;;;21.67;19.57;;;17.20;99.90;;;;;;5092633;28;20474;-53
2021/09/07 05:51:00;;;;;;;21.33;19.10;;;17.30;99.90;;;;;;5092728;28;20939;-54
2021/09/07 05:53:27;;;;;;;23.63;21.43;;;17.30;99.90;;;;;;5093084;28;20807;-53
2021/09/07 05:55:53;;;;;;;23.83;21.37;;;17.40;99.90;;;;;;5092790;28;20438;-54
2021/09/07 05:58:20;;;;;;;24.50;21.90;;;17.40;99.90;;;;;;5092097;28;20438;-57
2021/09/07 06:00:48;;;;;;;24.03;21.73;;;17.50;99.90;;;;;;5092614;28;20462;-53
2021/09/07 06:03:15;;;;;;;23.93;21.60;;;17.60;99.90;;;;;;5092965;28;20438;-54
2021/09/07 06:05:42;;;;;;;23.53;21.07;;;17.70;99.90;;;;;;5092499;28;20446;-53
2021/09/07 06:08:08;;;;;;;23.80;21.40;;;17.70;99.90;;;;;;5092574;28;20630;-53
2021/09/07 06:10:36;;;;;;;24.63;22.33;;;17.80;99.90;;;;;;5092482;28;20474;-56
2021/09/07 06:13:05;;;;;;;24.23;21.80;;;17.90;99.90;;;;;;5092546;28;20454;-53
2021/09/07 06:15:32;;;;;;;23.27;21.33;;;18.00;99.90;;;;;;5092544;28;20442;-53
2021/09/07 06:18:00;;;;;;;24.40;22.47;;;18.00;99.90;;;;;;5092532;28;20446;-53
2021/09/07 06:20:26;;;;;;;24.23;22.10;;;18.10;99.90;;;;;;5092474;28;20802;-53
2021/09/07 06:22:53;;;;;;;26.37;24.00;;;18.20;99.90;;;;;;5092211;28;20466;-61
2021/09/07 06:25:20;;;;;;;25.57;23.40;;;18.30;99.90;;;;;;5092268;28;20446;-55
2021/09/07 06:27:47;;;;;;;25.60;23.40;;;18.40;99.90;;;;;;5092458;28;20500;-53
2021/09/07 06:30:14;;;;;;;26.27;23.97;;;18.50;99.90;;;;;;5092067;28;20986;-60
2021/09/07 06:32:41;;;;;;;28.40;26.17;;;18.50;99.90;;;;;;5092107;28;20818;-53
2021/09/07 06:35:10;;;;;;;25.67;23.50;;;18.60;99.90;;;;;;5092202;28;20939;-53
2021/09/07 06:37:37;;;;;;;27.20;25.00;;;18.70;99.90;;;;;;5092085;28;20434;-53
2021/09/07 06:40:06;;;;;;;28.43;26.07;;;18.80;99.90;;;;;;5091933;28;20967;-55
2021/09/07 06:42:33;;;;;;;29.00;26.40;;;18.90;99.90;;;;;;5092044;28;20439;-54
2021/09/07 06:44:59;;;;;;;28.50;26.10;;;19.00;99.90;;;;;;5092083;28;20438;-53
2021/09/07 06:47:26;;;;;;;28.70;26.00;;;19.00;99.90;;;;;;5092227;28;20481;-53
2021/09/07 06:49:53;;;;;;;27.77;25.37;;;19.10;99.90;;;;;;5091815;28;20470;-56
2021/09/07 06:52:22;;;;;;;28.33;25.90;;;19.30;99.90;;;;;;5092226;28;20442;-53
2021/09/07 06:54:49;;;;;;;31.17;25.70;;;19.30;99.90;;;;;;5092310;28;20438;-56
2021/09/07 06:57:16;;;;;;;29.23;26.73;;;19.50;99.90;;;;;;5092258;28;20449;-55
2021/09/07 06:59:43;;;;;;;29.97;27.20;;;19.60;99.90;;;;;;5092020;28;20462;-59
2021/09/07 07:02:09;;;;;;;28.97;26.50;;;19.70;99.90;;;;;;5092088;28;20443;-53
2021/09/07 07:04:36;;;;;;;29.43;27.03;;;19.70;99.90;;;;;;5091484;28;20940;-53
2021/09/07 07:07:03;;;;;;;29.83;27.43;;;19.80;99.90;;;;;;5091664;28;20447;-54
2021/09/07 07:09:31;;;;;;;29.27;26.87;;;19.70;99.90;;;;;;5093361;28;20508;-55
2021/09/07 07:11:58;;;;;;;26.80;24.77;;;19.80;99.90;;;;;;5095855;28;20932;-53
2021/09/07 07:14:24;;;;;;;29.30;26.57;;;19.80;99.90;;;;;;5095753;28;20442;-53
2021/09/07 07:16:51;;;;;;;30.40;27.63;;;19.90;99.90;;;;;;5095736;28;20442;-53
2021/09/07 07:19:18;;;;;;;27.33;25.20;;;20.00;99.90;;;;;;5095604;28;20457;-54
2021/09/07 07:21:47;;;;;;;26.90;24.50;;;20.10;99.90;;;;;;5095500;28;20442;-53
2021/09/07 07:24:14;;;;;;;29.93;27.37;;;20.30;99.90;;;;;;5095611;28;20543;-59
2021/09/07 07:26:43;;;;;;;29.80;27.20;;;20.50;99.90;;;;;;5095813;28;20448;-54
2021/09/07 07:29:10;;;;;;;29.50;27.10;;;20.50;99.90;;;;;;5095566;28;20990;-54
2021/09/07 07:31:37;;;;;;;29.40;26.70;;;20.60;99.90;;;;;;5095297;28;20821;-54
2021/09/07 07:34:03;;;;;;;29.67;27.27;;;20.60;99.90;;;;;;5095371;28;20453;-54
2021/09/07 07:36:31;;;;;;;31.37;28.67;;;20.80;99.90;;;;;;5095433;28;20445;-59
2021/09/07 07:38:57;;;;;;;29.93;27.73;;;20.90;99.90;;;;;;5095197;28;20511;-53
2021/09/07 07:41:24;;;;;;;29.53;27.30;;;21.00;99.90;;;;;;5095114;28;20447;-53
2021/09/07 07:43:52;;;;;;;30.30;27.70;;;21.10;99.90;;;;;;5095244;28;21016;-57
2021/09/07 07:46:19;;;;;;;28.40;26.20;;;21.20;99.90;;;;;;5095288;28;20438;-57
2021/09/07 07:48:45;;;;;;;31.27;28.77;;;21.30;99.90;;;;;;5095228;28;20469;-54
2021/09/07 07:51:13;;;;;;;30.50;28.27;;;21.40;99.90;;;;;;5095168;28;20956;-56
2021/09/07 07:53:40;;;;;;;29.60;27.60;;;21.50;99.90;;;;;;5095152;28;20438;-55
2021/09/07 07:56:07;;;;;;;29.50;26.90;;;21.50;99.90;;;;;;5094953;28;20550;-59
2021/09/07 07:58:34;;;;;;;32.27;29.73;;;21.50;99.90;;;;;;5095291;28;20438;-53
2021/09/07 08:01:03;;;;;;;32.13;29.43;;;21.60;99.90;;;;;;5094966;28;20445;-53
2021/09/07 08:03:29;;;;;;;31.10;28.80;;;21.70;99.90;;;;;;5094974;28;20454;-58
2021/09/07 08:05:56;;;;;;;30.37;28.20;;;21.90;99.90;;;;;;5094825;28;20469;-53
2021/09/07 08:08:23;;;;;;;29.80;27.67;;;22.00;99.90;;;;;;5094760;28;20485;-53
2021/09/07 08:10:50;;;;;;;30.07;27.77;;;22.20;99.90;;;;;;5094611;28;20548;-60
2021/09/07 08:13:16;;;;;;;33.03;30.43;;;22.20;99.90;;;;;;5094737;28;20450;-54
2021/09/07 08:15:43;;;;;;;30.73;28.43;;;22.20;99.90;;;;;;5094854;28;20438;-54
2021/09/07 08:18:11;;;;;;;32.33;29.63;;;22.40;99.90;;;;;;5094655;28;20443;-54
2021/09/07 08:20:38;;;;;;;31.63;29.33;;;22.60;99.90;;;;;;5093617;28;20465;-53
2021/09/07 08:23:05;;;;;;;30.70;28.50;;;22.70;99.90;;;;;;5094683;28;20492;-55
2021/09/07 08:25:31;;;;;;;32.67;30.27;;;22.90;99.90;;;;;;5094488;28;20437;-53
2021/09/07 08:27:58;;;;;;;31.30;29.00;;;23.00;99.90;;;;;;5094184;28;20477;-59
2021/09/07 08:30:25;;;;;;;33.30;30.63;;;23.10;99.90;;;;;;5094332;28;20524;-56
2021/09/07 08:32:52;;;;;;;33.63;31.00;;;23.10;99.90;;;;;;5094300;28;20450;-54
2021/09/07 08:35:20;;;;;;;33.17;30.47;;;23.10;99.90;;;;;;5094119;28;20465;-53
2021/09/07 08:37:46;;;;;;;32.30;29.90;;;23.10;99.90;;;;;;5094172;28;20449;-53
2021/09/07 08:40:13;;;;;;;31.90;29.53;;;23.00;99.90;;;;;;5093927;28;20465;-57
2021/09/07 08:42:40;;;;;;;30.43;28.33;;;23.10;99.90;;;;;;5093922;28;20441;-58
2021/09/07 08:45:16;;;;;;;30.67;28.47;;;22.90;99.90;;;;;;5093973;28;20439;-52
2021/09/07 08:47:46;;;;;;;30.40;28.07;;;23.00;99.90;;;;;;5093814;28;20477;-57
2021/09/07 08:50:14;;;;;;;32.43;29.73;;;23.00;99.90;;;;;;5093817;28;20496;-54
2021/09/07 08:52:43;;;;;;;30.63;28.37;;;23.00;99.90;;;;;;5093773;28;20451;-53
2021/09/07 08:55:10;;;;;;;35.17;32.27;;;23.00;99.90;;;;;;5093819;28;20443;-61
2021/09/07 08:57:37;;;;;;;32.93;30.07;;;22.90;99.90;;;;;;5093842;28;20442;-52
2021/09/07 09:00:06;;;;;;;31.10;28.87;;;22.90;99.90;;;;;;5093608;28;20458;-55
2021/09/07 09:02:39;;;;;;;32.10;29.63;;;22.80;99.90;;;;;;5093585;28;20805;-56
2021/09/07 09:05:07;;;;;;;33.80;31.00;;;22.80;99.90;;;;;;5093542;28;20453;-55
2021/09/07 09:07:34;;;;;;;32.00;29.60;;;22.80;99.90;;;;;;5093721;28;20446;-56
2021/09/07 09:10:02;;;;;;;32.73;29.97;;;22.60;99.90;;;;;;5093332;28;20507;-52
2021/09/07 09:12:31;;;;;;;34.80;32.10;;;22.70;99.90;;;;;;5093333;28;20442;-53
2021/09/07 09:14:58;;;;;;;31.67;29.27;;;22.90;99.90;;;;;;5093460;28;20798;-53
2021/09/07 09:17:30;;;;;;;33.00;30.50;;;22.90;99.90;;;;;;5093370;28;20438;-53
2021/09/07 09:20:00;;;;;;;32.63;29.93;;;23.10;99.90;;;;;;5093438;28;20458;-57
2021/09/07 09:22:44;;;;;;;32.43;29.90;;;23.30;99.90;;;;;;5093149;28;20503;-54
2021/09/07 09:25:36;;;;;;;32.20;29.60;;;23.30;99.90;;;;;;5093313;28;20449;-57
2021/09/07 09:28:27;;;;;;;32.10;29.43;;;23.30;99.90;;;;;;5054004;28;20436;-55
2021/09/07 09:30:56;;;;;;;32.93;30.30;;;23.30;99.90;;;;;;5052630;28;20805;-57
2021/09/07 09:33:24;;;;;;;32.63;29.97;;;23.30;99.90;;;;;;5064087;28;20443;-56
2021/09/07 09:35:56;;;;;;;30.93;28.53;;;23.40;99.90;;;;;;5072375;28;20489;-56
2021/09/07 09:38:25;;;;;;;30.60;28.10;;;23.60;99.90;;;;;;5070968;28;20545;-59
2021/09/07 09:40:55;;;;;;;29.50;27.20;;;23.70;99.90;;;;;;5062516;28;20460;-55
2021/09/07 09:43:24;;;;;;;31.50;29.00;;;23.80;99.90;;;;;;5053548;28;20444;-57
2021/09/07 09:45:51;;;;;;;32.17;29.77;;;23.90;99.90;;;;;;5053555;28;20444;-58
2021/09/07 09:48:27;;;;;;;32.77;30.17;;;24.00;99.90;;;;;;5052180;28;20527;-57
2021/09/07 09:50:56;;;;;;;31.50;29.10;;;24.10;99.90;;;;;;5052099;28;20455;-64
2021/09/07 09:53:24;;;;;;;31.50;29.17;;;24.20;99.90;;;;;;5052464;28;20455;-54
2021/09/07 09:55:53;;;;;;;29.43;27.47;;;24.40;99.90;;;;;;5053548;28;20455;-57
2021/09/07 09:58:23;;;;;;;29.47;27.00;;;24.60;99.90;;;;;;5052539;28;20976;-62
2021/09/07 10:00:51;;;;;;;28.80;26.60;;;24.70;99.90;;;;;;5052158;28;20471;-55
2021/09/07 10:03:18;;;;;;;30.80;28.40;;;24.80;99.90;;;;;;5052199;28;20837;-55
2021/09/07 10:05:46;;;;;;;30.43;28.13;;;25.00;99.90;;;;;;5067182;28;20446;-55
2021/09/07 10:08:15;;;;;;;32.30;29.90;;;25.00;99.90;;;;;;5072061;28;20455;-56
2021/09/07 10:10:50;;;;;;;32.93;29.97;;;25.10;99.90;;;;;;5088880;22;21010;-64
2021/09/07 10:13:18;;;;;;;28.87;26.63;;;25.30;99.90;;;;;;5065289;28;20801;-66
2021/09/07 10:15:49;;;;;;;30.77;28.30;;;25.40;99.90;;;;;;5041917;28;21026;-66
2021/09/07 10:18:29;;;;;;;29.47;27.37;;;25.70;99.80;;;;;;5031972;28;20967;-66
2021/09/07 10:21:04;;;;;;;30.93;28.53;;;25.90;98.80;;;;;;5031915;28;20473;-67
2021/09/07 10:23:54;;;;;;;31.37;29.17;;;26.20;97.80;;;;;;5031831;28;20816;-64
2021/09/07 10:26:53;;;;;;;31.77;29.20;;;26.40;97.60;;;;;;5051390;28;20535;-64
2021/09/07 10:29:39;;;;;;;30.63;28.33;;;26.60;96.80;;;;;;5051567;28;20514;-64
2021/09/07 10:32:24;;;;;;;30.33;28.30;;;26.90;95.50;;;;;;5051473;28;20444;-65
2021/09/07 10:35:04;;;;;;;30.07;28.07;;;26.70;93.70;;;;;;5051799;28;20996;-63
2021/09/07 10:38:13;;;;;;;30.20;28.10;;;27.10;93.10;;;;;;5051744;28;20443;-64
2021/09/07 10:40:42;;;;;;;34.00;31.50;;;27.50;91.10;;;;;;5051754;28;20570;-65
2021/09/07 10:43:10;;;;;;;30.13;28.00;;;28.00;88.70;;;;;;5051166;28;20805;-64
2021/09/07 10:45:37;;;;;;;30.10;28.10;;;28.40;82.10;;;;;;5051368;28;20451;-64
2021/09/07 10:48:32;;;;;;;29.77;27.87;;;28.80;73.30;;;;;;5051644;28;20501;-65
2021/09/07 10:51:00;;;;;;;30.70;28.60;;;28.90;69.80;;;;;;5051375;28;20452;-64
2021/09/07 10:53:27;;;;;;;30.43;28.47;;;29.60;67.30;;;;;;5051497;28;21017;-64
2021/09/07 10:55:54;;;;;;;29.57;27.53;;;29.90;59.20;;;;;;5051445;28;20474;-64
2021/09/07 10:58:34;;;;;;;29.93;28.03;;;30.20;58.90;;;;;;5051527;28;20447;-66
2021/09/07 11:01:27;;;;;;;28.37;26.77;;;30.40;57.90;;;;;;5051202;28;20460;-65
2021/09/07 11:04:31;;;;;;;29.20;27.60;;;30.70;57.20;;;;;;5051392;28;20455;-64
2021/09/07 11:06:59;;;;;;;31.10;28.90;;;30.80;55.90;;;;;;5051586;28;20785;-64
2021/09/07 11:09:54;;;;;;;30.40;28.30;;;30.80;55.00;;;;;;5051107;28;20483;-64
2021/09/07 11:12:30;;;;;;;30.37;28.37;;;30.90;54.20;;;;;;5051158;28;20439;-62
2021/09/07 11:15:11;;;;;;;30.20;28.40;;;30.50;54.80;;;;;;5051158;28;20439;-65
2021/09/07 11:17:50;;;;;;;31.30;29.13;;;31.00;54.20;;;;;;5051315;28;20961;-64
2021/09/07 11:20:17;;;;;;;29.63;27.83;;;31.50;52.50;;;;;;5051186;28;20467;-64
2021/09/07 11:22:44;;;;;;;30.43;28.43;;;31.90;50.50;;;;;;5050963;28;20439;-64
2021/09/07 11:25:13;;;;;;;31.17;29.10;;;32.40;49.10;;;;;;5051219;28;20444;-64
2021/09/07 11:27:58;;;;;;;30.00;28.30;;;32.80;46.20;;;;;;5051046;28;20205;-64
2021/09/07 11:30:30;;;;;;;31.10;29.23;;;33.60;46.10;;;;;;5051039;28;20225;-64
2021/09/07 11:33:02;;;;;;;32.58;30.70;;;34.90;44.10;;;;;;5050952;28;20205;-65
2021/09/07 11:35:31;;;;;;;29.70;28.00;;;36.20;40.60;;;;;;5051257;28;20209;-65
2021/09/07 11:38:00;;;;;;;29.80;28.00;;;37.80;38.60;;;;;;5051094;28;20202;-66
2021/09/07 11:40:27;;;;;;;31.27;29.60;;;39.10;36.10;;;;;;5050987;28;20225;-62
2021/09/07 11:42:54;;;;;;;31.75;29.95;;;40.40;34.70;;;;;;5050789;28;20671;-62
2021/09/07 11:45:23;;;;;;;30.50;28.80;;;41.30;32.50;;;;;;5051037;28;20201;-62
2021/09/07 11:47:51;;;;;;;30.67;29.23;;;42.30;30.60;;;;;;5050960;28;20213;-62
2021/09/07 11:50:19;;;;;;;28.77;27.38;;;43.40;30.00;;;;;;5050738;28;20232;-61
2021/09/07 11:52:51;;;;;;;29.27;27.88;;;44.50;28.80;;;;;;5050568;28;20614;-62
2021/09/07 11:55:41;;;;;;;30.20;28.80;;;45.40;27.20;;;;;;5050819;28;20213;-62
2021/09/07 11:58:09;;;;;;;29.98;28.60;;;46.30;26.20;;;;;;5054535;28;20689;-63
2021/09/07 12:00:36;;;;;;;31.40;29.60;;;46.80;25.20;;;;;;5054373;28;20225;-62
2021/09/07 12:03:14;;;;;;;30.73;29.05;;;47.10;25.10;;;;;;5054337;28;20625;-64
2021/09/07 12:05:58;;;;;;;30.98;29.58;;;47.10;24.70;;;;;;5054452;28;20216;-63
2021/09/07 12:08:36;;;;;;;30.05;28.48;;;47.40;24.10;;;;;;5054424;28;20572;-62
2021/09/07 12:11:04;;;;;;;27.83;26.50;;;48.20;23.80;;;;;;5053781;28;20264;-62
2021/09/07 12:13:32;;;;;;;28.90;27.60;;;48.60;23.30;;;;;;5054288;28;20298;-62
2021/09/07 12:15:59;;;;;;;29.88;28.35;;;48.90;23.10;;;;;;5054132;28;20654;-61
2021/09/07 12:18:30;;;;;;;30.63;29.17;;;50.00;22.60;;;;;;5054248;28;20201;-62
2021/09/07 12:21:15;;;;;;;28.10;26.70;;;50.80;22.70;;;;;;5053960;28;20224;-63
2021/09/07 12:23:43;;;;;;;28.25;27.05;;;51.70;21.80;;;;;;5053759;28;20201;-62
2021/09/07 12:26:11;;;;;;;27.67;26.48;;;52.00;22.00;;;;;;5053855;28;20693;-64
2021/09/07 12:28:40;;;;;;;29.75;28.33;;;51.00;21.90;;;;;;5053859;28;20217;-62
2021/09/07 12:31:14;;;;;;;29.38;28.08;;;51.60;21.70;;;;;;5053722;28;20681;-64
2021/09/07 12:33:47;;;;;;;28.77;27.48;;;52.30;20.80;;;;;;5053786;28;20700;-63
2021/09/07 12:36:14;;;;;;;27.83;26.52;;;52.60;20.80;;;;;;5053824;28;20212;-63